createdAt,value
2022-10-14T00:02:22.058Z,99.90
2022-10-14T00:04:48.639Z,99.90
2022-10-14T00:07:15.240Z,99.90
2022-10-14T00:09:42.804Z,99.90
2022-10-14T00:12:09.504Z,99.90
2022-10-14T00:14:36.143Z,99.90
2022-10-14T00:17:02.756Z,99.90
2022-10-14T00:19:29.314Z,99.90
2022-10-14T00:21:55.943Z,99.90
2022-10-14T00:24:22.535Z,99.90
2022-10-14T00:26:49.151Z,99.90
2022-10-14T00:29:18.612Z,99.90
2022-10-14T00:31:45.444Z,99.90
2022-10-14T00:34:13.159Z,99.90
2022-10-14T00:36:40.550Z,99.90
2022-10-14T00:39:07.455Z,99.90
2022-10-14T00:41:34.523Z,99.90
2022-10-14T00:44:03.037Z,99.90
2022-10-14T00:46:31.087Z,99.90
2022-10-14T00:48:59.315Z,99.90
2022-10-14T00:51:26.114Z,99.90
2022-10-14T00:53:52.810Z,99.90
2022-10-14T00:56:22.288Z,99.90
2022-10-14T00:58:48.915Z,99.90
2022-10-14T01:01:15.607Z,99.90
2022-10-14T01:03:42.330Z,99.90
2022-10-14T01:06:17.889Z,99.90
2022-10-14T01:09:04.762Z,99.90
2022-10-14T01:11:34.504Z,99.90
2022-10-14T01:14:13.450Z,99.90
2022-10-14T01:16:46.824Z,99.90
2022-10-14T01:19:32.164Z,99.90
2022-10-14T01:22:22.143Z,99.90
2022-10-14T01:24:54.994Z,99.90
2022-10-14T01:27:40.093Z,99.90
2022-10-14T01:30:23.008Z,99.90
2022-10-14T01:32:55.844Z,99.90
2022-10-14T01:35:34.650Z,99.90
2022-10-14T01:38:04.459Z,99.90
2022-10-14T01:40:54.132Z,99.90
2022-10-14T01:43:22.434Z,99.90
2022-10-14T01:45:49.963Z,99.90
2022-10-14T01:48:18.137Z,99.90
2022-10-14T01:50:46.563Z,99.90
2022-10-14T01:53:15.328Z,99.90
2022-10-14T01:55:44.205Z,99.90
2022-10-14T01:58:12.398Z,99.90
2022-10-14T02:00:39.007Z,99.90
2022-10-14T02:03:05.684Z,99.90
2022-10-14T02:05:36.412Z,99.90
2022-10-14T02:08:11.923Z,99.90
2022-10-14T02:11:01.933Z,99.90
2022-10-14T02:13:48.023Z,99.90
2022-10-14T02:16:14.965Z,99.90
2022-10-14T02:18:48.403Z,99.90
2022-10-14T02:21:24.104Z,99.90
2022-10-14T02:23:54.127Z,99.90
2022-10-14T02:26:21.189Z,99.90
2022-10-14T02:28:48.545Z,99.90
2022-10-14T02:31:17.203Z,99.90
2022-10-14T02:33:45.263Z,99.90
2022-10-14T02:36:13.767Z,99.90
2022-10-14T02:38:40.903Z,99.90
2022-10-14T02:41:09.820Z,99.90
2022-10-14T02:43:36.425Z,99.90
2022-10-14T02:46:04.005Z,99.90
2022-10-14T02:48:30.745Z,99.90
2022-10-14T02:50:57.616Z,99.90
2022-10-14T02:53:24.339Z,99.90
2022-10-14T02:55:50.957Z,99.90
2022-10-14T02:58:17.579Z,99.90
2022-10-14T03:00:44.197Z,99.90
2022-10-14T03:03:11.106Z,99.90
2022-10-14T03:05:37.713Z,99.90
2022-10-14T03:08:04.385Z,99.90
2022-10-14T03:10:30.982Z,99.90
2022-10-14T03:12:57.598Z,99.90
2022-10-14T03:15:24.178Z,99.90
2022-10-14T03:17:50.898Z,99.90
2022-10-14T03:20:17.575Z,99.90
2022-10-14T03:22:44.155Z,99.90
2022-10-14T03:25:11.432Z,99.90
2022-10-14T03:27:38.018Z,99.90
2022-10-14T03:30:04.848Z,99.90
2022-10-14T03:32:31.457Z,99.90
2022-10-14T03:34:58.072Z,99.90
2022-10-14T03:37:24.812Z,99.90
2022-10-14T03:39:51.465Z,99.90
2022-10-14T03:42:18.157Z,99.90
2022-10-14T03:44:46.161Z,99.90
2022-10-14T03:47:12.793Z,99.90
2022-10-14T03:49:39.403Z,99.90
2022-10-14T03:52:05.982Z,99.90
2022-10-14T03:54:32.628Z,99.90
2022-10-14T03:56:59.259Z,99.90
2022-10-14T03:59:25.884Z,99.90
2022-10-14T04:01:52.603Z,99.90
2022-10-14T04:04:19.250Z,99.90
2022-10-14T04:06:45.827Z,99.90
2022-10-14T04:09:12.521Z,99.90
2022-10-14T04:11:39.154Z,99.90
2022-10-14T04:14:05.741Z,99.90
2022-10-14T04:16:32.424Z,99.90
2022-10-14T04:18:59.033Z,99.90
2022-10-14T04:21:25.644Z,99.90
2022-10-14T04:23:52.231Z,99.90
2022-10-14T04:26:18.977Z,99.90
2022-10-14T04:28:45.927Z,99.90
2022-10-14T04:31:12.578Z,99.90
2022-10-14T04:33:39.331Z,99.90
2022-10-14T04:36:06.451Z,99.90
2022-10-14T04:38:33.755Z,99.90
2022-10-14T04:41:00.425Z,99.90
2022-10-14T04:43:27.064Z,99.90
2022-10-14T04:45:54.410Z,99.90
2022-10-14T04:48:21.379Z,99.90
2022-10-14T04:50:50.259Z,99.90
2022-10-14T04:53:21.774Z,99.90
2022-10-14T04:55:49.610Z,99.90
2022-10-14T04:58:16.883Z,99.90
2022-10-14T05:00:43.887Z,99.90
2022-10-14T05:03:10.653Z,99.90
2022-10-14T05:05:37.264Z,99.90
2022-10-14T05:08:04.123Z,99.90
2022-10-14T05:10:30.831Z,99.90
2022-10-14T05:12:57.471Z,99.90
2022-10-14T05:15:24.224Z,99.90
2022-10-14T05:17:50.807Z,99.90
2022-10-14T05:20:17.435Z,99.90
2022-10-14T05:22:45.473Z,99.90
2022-10-14T05:25:12.163Z,99.90
2022-10-14T05:27:39.116Z,99.90
2022-10-14T05:30:05.923Z,99.90
2022-10-14T05:32:32.532Z,99.90
2022-10-14T05:34:59.152Z,99.90
2022-10-14T05:37:25.848Z,99.90
2022-10-14T05:39:52.467Z,99.90
2022-10-14T05:42:19.344Z,99.90
2022-10-14T05:44:46.199Z,99.90
2022-10-14T05:47:12.932Z,99.90
2022-10-14T05:49:39.562Z,99.90
2022-10-14T05:52:06.473Z,99.90
2022-10-14T05:54:33.166Z,99.90
2022-10-14T05:56:59.780Z,99.90
2022-10-14T05:59:26.440Z,99.90
2022-10-14T06:01:53.020Z,99.90
2022-10-14T06:04:20.541Z,99.90
2022-10-14T06:06:47.184Z,99.90
2022-10-14T06:09:13.944Z,99.90
2022-10-14T06:11:40.666Z,99.90
2022-10-14T06:14:07.559Z,99.90
2022-10-14T06:16:34.193Z,99.90
2022-10-14T06:19:00.975Z,99.90
2022-10-14T06:21:27.651Z,99.90
2022-10-14T06:23:54.275Z,99.90
2022-10-14T06:26:20.959Z,99.90
2022-10-14T06:28:47.634Z,99.90
2022-10-14T06:31:14.349Z,99.90
2022-10-14T06:33:41.356Z,99.90
2022-10-14T06:36:08.143Z,99.90
2022-10-14T06:38:34.783Z,99.90
2022-10-14T06:41:01.635Z,99.90
2022-10-14T06:43:28.267Z,99.90
2022-10-14T06:45:56.835Z,99.90
2022-10-14T06:48:23.449Z,99.90
2022-10-14T06:50:50.023Z,99.90
2022-10-14T06:53:16.703Z,99.90
2022-10-14T06:55:43.324Z,99.90
2022-10-14T06:58:09.900Z,99.90
2022-10-14T07:00:37.370Z,99.90
2022-10-14T07:03:04.198Z,99.90
2022-10-14T07:05:30.919Z,99.90
2022-10-14T07:07:58.205Z,99.90
2022-10-14T07:10:24.879Z,99.90
2022-10-14T07:12:55.568Z,99.90
2022-10-14T07:15:22.603Z,99.90
2022-10-14T07:17:49.228Z,99.90
2022-10-14T07:20:15.936Z,99.90
2022-10-14T07:22:42.763Z,99.90
2022-10-14T07:25:09.587Z,99.90
2022-10-14T07:27:36.609Z,99.90
2022-10-14T07:30:04.275Z,99.90
2022-10-14T07:32:31.120Z,99.90
2022-10-14T07:34:57.691Z,99.90
2022-10-14T07:37:24.636Z,99.90
2022-10-14T07:39:51.619Z,99.90
2022-10-14T07:42:18.307Z,99.90
2022-10-14T07:44:45.818Z,99.90
2022-10-14T07:47:13.117Z,99.90
2022-10-14T07:49:39.716Z,99.90
2022-10-14T07:52:06.354Z,99.90
2022-10-14T07:54:33.123Z,99.90
2022-10-14T07:56:59.808Z,99.90
2022-10-14T07:59:26.403Z,99.90
2022-10-14T08:01:53.823Z,99.90
2022-10-14T08:04:20.490Z,99.90
2022-10-14T08:06:48.174Z,99.90
2022-10-14T08:09:14.925Z,99.90
2022-10-14T08:11:42.783Z,99.90
2022-10-14T08:14:09.463Z,99.90
2022-10-14T08:16:36.868Z,99.90
2022-10-14T08:19:10.936Z,99.90
2022-10-14T08:21:41.447Z,99.90
2022-10-14T08:24:08.428Z,99.90
2022-10-14T08:26:38.957Z,99.90
2022-10-14T08:29:07.155Z,99.90
2022-10-14T08:31:34.005Z,99.90
2022-10-14T08:34:00.823Z,99.90
2022-10-14T08:36:27.440Z,99.90
2022-10-14T08:38:54.470Z,99.90
2022-10-14T08:41:23.171Z,99.90
2022-10-14T08:43:52.724Z,99.90
2022-10-14T08:46:22.320Z,99.90
2022-10-14T08:48:49.036Z,95.80
2022-10-14T08:51:17.440Z,90.50
2022-10-14T08:53:46.022Z,77.80
2022-10-14T08:56:13.307Z,70.90
2022-10-14T08:58:41.394Z,63.30
2022-10-14T09:01:26.467Z,57.40
2022-10-14T09:03:56.571Z,51.80
2022-10-14T09:06:27.587Z,50.30
2022-10-14T09:09:00.235Z,44.90
2022-10-14T09:11:32.088Z,43.70
2022-10-14T09:14:01.800Z,46.00
2022-10-14T09:16:33.143Z,49.80
2022-10-14T09:19:00.865Z,53.30
2022-10-14T09:21:40.618Z,54.80
2022-10-14T09:24:17.399Z,59.70
2022-10-14T09:26:45.201Z,59.00
2022-10-14T09:29:18.059Z,64.60
2022-10-14T09:31:44.734Z,66.10
2022-10-14T09:34:20.391Z,69.00
2022-10-14T09:36:49.213Z,66.10
2022-10-14T09:39:16.212Z,70.60
2022-10-14T09:41:43.604Z,69.10
2022-10-14T09:44:13.195Z,70.30
2022-10-14T09:46:39.880Z,70.00
2022-10-14T09:49:13.263Z,75.70
2022-10-14T09:51:42.270Z,71.80
2022-10-14T09:54:20.209Z,73.30
2022-10-14T09:56:49.528Z,76.50
2022-10-14T09:59:20.403Z,80.80
2022-10-14T10:01:51.043Z,82.20
2022-10-14T10:04:33.008Z,82.80
2022-10-14T10:07:01.118Z,84.50
2022-10-14T10:09:27.800Z,83.30
2022-10-14T10:11:55.158Z,84.10
2022-10-14T10:14:33.032Z,90.00
2022-10-14T10:17:09.744Z,88.10
2022-10-14T10:19:43.044Z,89.00
2022-10-14T10:25:01.122Z,80.90
2022-10-14T10:27:36.135Z,86.90
2022-10-14T10:30:24.582Z,87.60
2022-10-14T10:32:51.150Z,89.90
2022-10-14T10:35:17.707Z,84.00
2022-10-14T10:37:58.195Z,86.60
2022-10-14T10:40:32.077Z,83.50
2022-10-14T10:43:13.311Z,84.00
2022-10-14T10:45:55.523Z,91.90
2022-10-14T10:48:29.437Z,90.80
2022-10-14T10:51:02.251Z,91.20
2022-10-14T10:53:38.249Z,85.50
2022-10-14T10:56:05.149Z,92.00
2022-10-14T10:58:41.115Z,92.70
2022-10-14T11:01:27.066Z,92.10
2022-10-14T11:03:56.898Z,92.20
2022-10-14T11:06:45.201Z,92.50
2022-10-14T11:09:35.288Z,86.60
2022-10-14T11:12:15.704Z,87.70
2022-10-14T11:14:54.666Z,90.50
2022-10-14T11:17:28.686Z,84.80
2022-10-14T11:20:16.391Z,89.30
2022-10-14T11:22:48.925Z,85.40
2022-10-14T11:25:18.823Z,84.30
2022-10-14T11:27:52.139Z,80.50
2022-10-14T11:30:44.994Z,82.50
2022-10-14T11:33:20.737Z,87.30
2022-10-14T11:35:53.403Z,88.00
2022-10-14T11:38:38.779Z,86.60
2022-10-14T11:41:08.356Z,85.00
2022-10-14T11:43:50.863Z,90.00
2022-10-14T11:46:26.556Z,90.00
2022-10-14T11:49:01.588Z,89.90
2022-10-14T11:51:34.856Z,90.70
2022-10-14T11:54:11.342Z,89.30
2022-10-14T11:56:38.101Z,89.90
2022-10-14T11:59:19.514Z,87.60
2022-10-14T12:01:48.150Z,90.30
2022-10-14T12:04:18.724Z,89.00
2022-10-14T12:06:52.727Z,90.50
2022-10-14T12:09:32.808Z,90.30
2022-10-14T12:12:02.524Z,86.80
2022-10-14T12:14:32.299Z,78.90
2022-10-14T12:17:00.019Z,87.20
2022-10-14T12:19:28.416Z,89.10
2022-10-14T12:22:15.303Z,90.10
2022-10-14T12:24:43.434Z,90.40
2022-10-14T12:27:11.535Z,90.90
2022-10-14T12:29:40.894Z,89.80
2022-10-14T12:32:17.446Z,89.30
2022-10-14T12:34:44.159Z,88.10
2022-10-14T12:37:29.179Z,89.20
2022-10-14T12:40:06.645Z,90.10
2022-10-14T12:42:35.950Z,90.30
2022-10-14T12:45:04.871Z,91.60
2022-10-14T12:47:35.020Z,91.90
2022-10-14T12:50:04.791Z,90.30
2022-10-14T12:52:36.563Z,92.60
2022-10-14T12:55:09.299Z,92.60
2022-10-14T12:57:40.067Z,91.40
2022-10-14T13:00:32.295Z,93.30
2022-10-14T13:03:02.939Z,91.50
2022-10-14T13:05:29.613Z,92.50
2022-10-14T13:08:15.106Z,92.90
2022-10-14T13:11:02.351Z,93.30
2022-10-14T13:13:38.172Z,92.00
2022-10-14T13:16:30.989Z,92.50
2022-10-14T13:18:58.366Z,91.60
2022-10-14T13:21:34.221Z,94.40
2022-10-14T13:24:02.252Z,94.70
2022-10-14T13:26:41.102Z,93.00
2022-10-14T13:29:20.021Z,93.90
2022-10-14T13:32:05.422Z,93.50
2022-10-14T13:34:31.995Z,94.10
2022-10-14T13:37:02.069Z,93.20
2022-10-14T13:39:31.411Z,95.70
2022-10-14T13:41:58.519Z,96.90
2022-10-14T13:44:25.757Z,98.40
2022-10-14T13:46:53.039Z,99.00
2022-10-14T13:49:22.293Z,99.90
2022-10-14T13:52:00.043Z,99.90
2022-10-14T13:54:28.071Z,99.90
2022-10-14T13:57:38.153Z,99.90
2022-10-14T14:00:19.199Z,99.90
2022-10-14T14:02:33.862Z,99.90
2022-10-14T14:05:01.425Z,99.90
2022-10-14T14:10:22.353Z,99.90
2022-10-14T14:12:49.835Z,99.90
2022-10-14T14:15:22.483Z,99.90
2022-10-14T14:17:49.435Z,99.90
2022-10-14T14:20:19.119Z,99.90
2022-10-14T14:22:45.715Z,99.90
2022-10-14T14:25:33.596Z,99.90
2022-10-14T14:28:05.880Z,99.90
2022-10-14T14:30:34.527Z,99.90
2022-10-14T14:33:02.642Z,99.90
2022-10-14T14:35:29.707Z,99.90
2022-10-14T14:37:56.881Z,99.90
2022-10-14T14:40:25.274Z,99.90
2022-10-14T14:42:57.538Z,99.90
2022-10-14T14:45:29.149Z,99.90
2022-10-14T14:48:02.598Z,99.90
2022-10-14T14:50:33.766Z,99.90
2022-10-14T14:53:04.840Z,99.90
2022-10-14T14:55:34.315Z,99.90
2022-10-14T14:58:01.851Z,99.90
2022-10-14T15:00:30.566Z,99.90
2022-10-14T15:03:01.520Z,99.90
2022-10-14T15:05:28.271Z,99.90
2022-10-14T15:07:56.033Z,99.90
2022-10-14T15:10:24.663Z,99.90
2022-10-14T15:12:52.971Z,99.90
2022-10-14T15:15:38.570Z,99.90
2022-10-14T15:18:11.638Z,99.90
2022-10-14T15:20:38.313Z,99.90
2022-10-14T15:23:23.948Z,99.90
2022-10-14T15:26:00.765Z,99.90
2022-10-14T15:28:31.699Z,99.90
2022-10-14T15:31:03.038Z,99.90
2022-10-14T15:33:32.479Z,99.90
2022-10-14T15:36:00.187Z,99.90
2022-10-14T15:38:27.216Z,99.90
2022-10-14T15:40:54.117Z,99.90
2022-10-14T15:43:25.032Z,99.90
2022-10-14T15:46:12.594Z,99.90
2022-10-14T15:48:40.409Z,99.90
2022-10-14T15:51:07.059Z,99.90
2022-10-14T15:53:33.979Z,99.90
2022-10-14T15:56:00.597Z,99.90
2022-10-14T15:58:27.230Z,99.90
2022-10-14T16:00:53.926Z,99.90
2022-10-14T16:03:20.691Z,99.90
2022-10-14T16:05:47.376Z,99.90
2022-10-14T16:08:14.608Z,99.90
2022-10-14T16:10:45.311Z,99.90
2022-10-14T16:13:11.965Z,99.90
2022-10-14T16:15:58.022Z,99.90
2022-10-14T16:18:25.752Z,99.90
2022-10-14T16:20:52.491Z,99.90
2022-10-14T16:23:19.802Z,99.90
2022-10-14T16:25:49.076Z,99.90
2022-10-14T16:28:16.432Z,99.90
2022-10-14T16:30:48.582Z,99.90
2022-10-14T16:33:19.638Z,99.90
2022-10-14T16:35:52.324Z,99.90
2022-10-14T16:38:19.142Z,99.90
2022-10-14T16:40:45.763Z,99.90
2022-10-14T16:43:12.373Z,99.90
2022-10-14T16:45:38.972Z,99.90
2022-10-14T16:48:05.891Z,99.90
2022-10-14T16:50:32.498Z,99.90
2022-10-14T16:53:17.844Z,99.90
2022-10-14T16:55:44.476Z,99.90
2022-10-14T16:58:12.246Z,99.90
2022-10-14T17:00:38.885Z,99.90
2022-10-14T17:03:05.501Z,99.90
2022-10-14T17:05:32.218Z,99.90
2022-10-14T17:07:58.839Z,99.90
2022-10-14T17:10:25.678Z,99.90
2022-10-14T17:12:54.650Z,99.90
2022-10-14T17:15:21.331Z,99.90
2022-10-14T17:17:47.959Z,99.90
2022-10-14T17:20:14.625Z,99.90
2022-10-14T17:22:41.951Z,99.90
2022-10-14T17:25:08.760Z,99.90
2022-10-14T17:27:35.380Z,99.90
2022-10-14T17:30:02.025Z,99.90
2022-10-14T17:32:28.752Z,99.90
2022-10-14T17:34:55.449Z,99.90
2022-10-14T17:37:22.195Z,99.90
2022-10-14T17:39:48.844Z,99.90
2022-10-14T17:42:15.492Z,99.90
2022-10-14T17:44:43.791Z,99.90
2022-10-14T17:47:10.818Z,99.90
2022-10-14T17:49:37.446Z,99.90
2022-10-14T17:52:06.165Z,99.90
2022-10-14T17:54:32.783Z,99.90
2022-10-14T17:56:59.372Z,99.90
2022-10-14T17:59:26.002Z,99.90
2022-10-14T18:02:08.104Z,99.90
2022-10-14T18:04:34.830Z,99.90
2022-10-14T18:07:01.590Z,99.90
2022-10-14T18:09:28.294Z,99.90
2022-10-14T18:12:10.581Z,99.90
2022-10-14T18:14:41.211Z,99.90
2022-10-14T18:17:10.616Z,99.90
2022-10-14T18:19:37.221Z,99.90
2022-10-14T18:22:03.958Z,99.90
2022-10-14T18:24:30.654Z,99.90
2022-10-14T18:26:57.275Z,99.90
2022-10-14T18:29:24.195Z,99.90
2022-10-14T18:34:17.681Z,99.90
2022-10-14T18:36:44.360Z,99.90
2022-10-14T18:39:11.695Z,99.90
2022-10-14T18:41:38.281Z,99.90
2022-10-14T18:44:05.766Z,99.90
2022-10-14T18:46:33.463Z,99.90
2022-10-14T18:49:00.879Z,99.90
2022-10-14T18:51:28.885Z,99.90
2022-10-14T18:54:00.278Z,99.90
2022-10-14T18:56:29.791Z,99.90
2022-10-14T18:58:57.826Z,99.90
2022-10-14T19:01:26.121Z,99.90
2022-10-14T19:03:53.164Z,99.90
2022-10-14T19:06:21.067Z,99.90
2022-10-14T19:08:48.334Z,99.90
2022-10-14T19:11:24.920Z,99.90
2022-10-14T19:13:53.593Z,99.90
2022-10-14T19:16:20.310Z,99.90
2022-10-14T19:18:47.509Z,99.90
2022-10-14T19:21:15.460Z,99.90
2022-10-14T19:23:43.340Z,99.90
2022-10-14T19:26:11.613Z,99.90
2022-10-14T19:28:38.400Z,99.90
2022-10-14T19:31:06.335Z,99.90
2022-10-14T19:33:34.771Z,99.90
2022-10-14T19:36:01.495Z,99.90
2022-10-14T19:38:28.207Z,99.90
2022-10-14T19:40:58.366Z,99.90
2022-10-14T19:43:25.096Z,99.90
2022-10-14T19:45:51.696Z,99.90
2022-10-14T19:48:18.450Z,99.90
2022-10-14T19:50:45.055Z,99.90
2022-10-14T19:53:11.695Z,99.90
2022-10-14T19:55:38.331Z,99.90
2022-10-14T19:58:05.527Z,99.90
2022-10-14T20:00:32.672Z,99.90
2022-10-14T20:02:59.801Z,99.90
2022-10-14T20:05:26.464Z,99.90
2022-10-14T20:07:54.515Z,99.90
2022-10-14T20:10:21.180Z,99.90
2022-10-14T20:12:47.800Z,99.90
2022-10-14T20:15:14.401Z,99.90
2022-10-14T20:17:40.984Z,99.90
2022-10-14T20:20:07.831Z,99.90
2022-10-14T20:22:34.743Z,99.90
2022-10-14T20:25:01.427Z,99.90
2022-10-14T20:27:27.999Z,99.90
2022-10-14T20:29:54.594Z,99.90
2022-10-14T20:32:21.165Z,99.90
2022-10-14T20:34:48.168Z,99.90
2022-10-14T20:37:14.760Z,99.90
2022-10-14T20:39:41.472Z,99.90
2022-10-14T20:42:08.556Z,99.90
2022-10-14T20:44:35.283Z,99.90
2022-10-14T20:47:01.882Z,99.90
2022-10-14T20:49:28.461Z,99.90
2022-10-14T20:51:55.223Z,99.90
2022-10-14T20:54:21.787Z,99.90
2022-10-14T20:56:49.070Z,99.90
2022-10-14T20:59:15.743Z,99.90
2022-10-14T21:01:42.495Z,99.90
2022-10-14T21:04:09.326Z,99.90
2022-10-14T21:06:36.298Z,99.90
2022-10-14T21:09:03.003Z,99.90
2022-10-14T21:11:29.643Z,99.90
2022-10-14T21:13:57.295Z,99.90
2022-10-14T21:16:28.904Z,99.90
2022-10-14T21:18:58.014Z,99.90
2022-10-14T21:21:25.900Z,99.90
2022-10-14T21:23:52.510Z,99.90
2022-10-14T21:26:19.075Z,99.90
2022-10-14T21:28:45.691Z,99.90
2022-10-14T21:31:14.796Z,99.90
2022-10-14T21:33:44.176Z,99.90
2022-10-14T21:36:12.014Z,99.90
2022-10-14T21:38:39.608Z,99.90
2022-10-14T21:41:06.759Z,99.90
2022-10-14T21:43:34.554Z,99.90
2022-10-14T21:46:05.308Z,99.90
2022-10-14T21:48:31.976Z,99.90
2022-10-14T21:51:16.016Z,99.90
2022-10-14T21:53:43.449Z,99.90
2022-10-14T21:56:10.543Z,99.90
2022-10-14T21:58:37.542Z,99.90
2022-10-14T22:01:08.700Z,99.90
2022-10-14T22:03:35.683Z,99.90
2022-10-14T22:08:37.863Z,99.90
2022-10-14T22:11:05.022Z,99.90
2022-10-14T22:13:32.120Z,99.90
2022-10-14T22:15:58.702Z,99.90
2022-10-14T22:18:25.430Z,99.90
2022-10-14T22:20:59.349Z,99.90
2022-10-14T22:23:25.959Z,99.90
2022-10-14T22:25:52.567Z,99.90
2022-10-14T22:28:19.198Z,99.90
2022-10-14T22:30:45.806Z,99.90
2022-10-14T22:33:12.432Z,99.90
2022-10-14T22:35:39.002Z,99.90
2022-10-14T22:38:05.593Z,99.90
2022-10-14T22:40:34.490Z,99.90
2022-10-14T22:43:01.151Z,99.90
2022-10-14T22:45:27.889Z,99.90
2022-10-14T22:47:54.691Z,99.90
2022-10-14T22:50:21.268Z,99.90
2022-10-14T22:52:47.924Z,99.90
2022-10-14T22:55:14.600Z,99.90
2022-10-14T22:57:41.182Z,99.90
2022-10-14T23:00:08.099Z,99.90
2022-10-14T23:02:34.793Z,99.90
2022-10-14T23:05:01.456Z,99.90
2022-10-14T23:07:29.235Z,99.90
2022-10-14T23:09:56.001Z,99.90
2022-10-14T23:12:22.873Z,99.90
2022-10-14T23:14:51.243Z,99.90
2022-10-14T23:17:17.894Z,99.90
2022-10-14T23:19:46.161Z,99.90
2022-10-14T23:22:12.750Z,99.90
2022-10-14T23:24:39.331Z,99.90
2022-10-14T23:27:05.973Z,99.90
2022-10-14T23:29:32.559Z,99.90
2022-10-14T23:31:59.198Z,99.90
2022-10-14T23:34:25.762Z,99.90
2022-10-14T23:36:52.439Z,99.90
2022-10-14T23:39:19.046Z,99.90
2022-10-14T23:41:45.732Z,99.90
2022-10-14T23:44:12.566Z,99.90
2022-10-14T23:46:39.160Z,99.90
2022-10-14T23:49:21.166Z,99.90
2022-10-14T23:51:51.995Z,99.90
2022-10-14T23:54:18.582Z,99.90
2022-10-14T23:56:45.175Z,99.90
2022-10-14T23:59:11.826Z,99.90
